Time;durP1;ratioP1;P1;durP2;ratioP2;P2;SDS_P1;SDS_P2;PMS_P1;PMS_P2;Temp;Humidity;BMP_temperature;BMP_pressure;BME280_temperature;BME280_humidity;BME280_pressure;Samples;Min_cycle;Max_cycle;Signal;HPM_P1;HPM_P2
2021/12/22 00:01:10;;;;;;;4.90;1.90;;;;;;;;;;4972178;28;20244;-74
2021/12/22 00:03:39;;;;;;;6.60;2.70;;;;;;;;;;4974917;28;20658;-72
2021/12/22 00:06:09;;;;;;;4.67;1.80;;;;;;;;;;4973102;28;20260;-71
2021/12/22 00:08:38;;;;;;;13.23;2.83;;;;;;;;;;4974254;28;20273;-70
2021/12/22 00:11:06;;;;;;;4.27;2.03;;;;;;;;;;4973348;28;20639;-71
2021/12/22 00:13:34;;;;;;;7.10;2.57;;;;;;;;;;4974568;28;20205;-71
2021/12/22 00:16:03;;;;;;;2.93;1.80;;;;;;;;;;4973845;28;20284;-69
2021/12/22 00:18:32;;;;;;;6.03;2.33;;;;;;;;;;4972293;28;20248;-72
2021/12/22 00:21:00;;;;;;;6.40;2.10;;;;;;;;;;4974674;28;20241;-71
2021/12/22 00:23:30;;;;;;;9.70;2.33;;;;;;;;;;4973987;28;20228;-70
2021/12/22 00:25:59;;;;;;;4.00;2.00;;;;;;;;;;4974273;28;20720;-72
2021/12/22 00:28:28;;;;;;;12.53;2.30;;;;;;;;;;4964887;28;20304;-70
2021/12/22 00:30:56;;;;;;;9.60;2.23;;;;;;;;;;4973620;28;20626;-69
2021/12/22 00:33:27;;;;;;;9.73;2.47;;;;;;;;;;4972411;28;20557;-70
2021/12/22 00:35:55;;;;;;;4.53;2.07;;;;;;;;;;4974565;28;20289;-73
2021/12/22 00:38:24;;;;;;;5.77;2.43;;;;;;;;;;4972858;28;20233;-75
2021/12/22 00:40:54;;;;;;;2.73;1.90;;;;;;;;;;4973870;28;20630;-72
2021/12/22 00:43:22;;;;;;;7.20;2.57;;;;;;;;;;4972046;28;20268;-72
2021/12/22 00:45:56;;;;;;;8.57;2.47;;;;;;;;;;4974582;28;20205;-71
2021/12/22 00:48:24;;;;;;;3.00;2.00;;;;;;;;;;4974275;28;20226;-72
2021/12/22 00:50:53;;;;;;;8.47;1.60;;;;;;;;;;4974313;28;20216;-72
2021/12/22 00:53:21;;;;;;;2.27;1.60;;;;;;;;;;4971189;28;20260;-72
2021/12/22 00:55:50;;;;;;;5.93;2.30;;;;;;;;;;4973568;28;20222;-73
2021/12/22 00:58:20;;;;;;;2.53;1.90;;;;;;;;;;4976046;28;20304;-73
2021/12/22 01:00:49;;;;;;;3.87;2.10;;;;;;;;;;4977785;28;20255;-72
2021/12/22 01:03:18;;;;;;;2.47;1.80;;;;;;;;;;4975976;28;20233;-71
2021/12/22 01:05:47;;;;;;;3.60;2.10;;;;;;;;;;4977989;28;20251;-70
2021/12/22 01:08:16;;;;;;;7.27;2.30;;;;;;;;;;4976062;28;20229;-71
2021/12/22 01:10:44;;;;;;;2.03;1.50;;;;;;;;;;4978228;28;20217;-72
2021/12/22 01:13:14;;;;;;;2.33;1.37;;;;;;;;;;4975454;28;20248;-73
2021/12/22 01:15:43;;;;;;;3.10;1.53;;;;;;;;;;4977772;28;20303;-72
2021/12/22 01:18:14;;;;;;;2.10;1.50;;;;;;;;;;4975856;28;20720;-73
2021/12/22 01:20:59;;;;;;;3.10;2.13;;;;;;;;;;4977979;28;20205;-76
2021/12/22 01:23:33;;;;;;;3.50;1.73;;;;;;;;;;4976015;28;20274;-70
2021/12/22 01:26:03;;;;;;;4.03;2.33;;;;;;;;;;4977275;28;20216;-71
2021/12/22 01:28:33;;;;;;;2.00;1.50;;;;;;;;;;4975393;28;20275;-72
2021/12/22 01:31:03;;;;;;;3.20;1.50;;;;;;;;;;4977109;28;20206;-72
2021/12/22 01:33:32;;;;;;;6.40;2.47;;;;;;;;;;4976406;28;20587;-72
2021/12/22 01:36:00;;;;;;;5.53;2.23;;;;;;;;;;4977647;28;20230;-70
2021/12/22 01:38:29;;;;;;;2.67;1.40;;;;;;;;;;4975320;28;20276;-71
2021/12/22 01:40:57;;;;;;;6.33;1.40;;;;;;;;;;4977514;28;20573;-73
2021/12/22 01:43:26;;;;;;;13.60;1.80;;;;;;;;;;4973320;28;20213;-71
2021/12/22 01:46:10;;;;;;;2.57;1.90;;;;;;;;;;4976980;28;20212;-70
2021/12/22 01:51:35;;;;;;;6.13;1.80;;;;;;;;;;4973703;28;20693;-70
2021/12/22 01:54:05;;;;;;;2.10;1.40;;;;;;;;;;4976074;28;20210;-73
2021/12/22 01:56:35;;;;;;;1.73;1.33;;;;;;;;;;4976207;28;20280;-73
2021/12/22 01:59:05;;;;;;;1.60;1.03;;;;;;;;;;4976913;28;20281;-70
2021/12/22 02:01:34;;;;;;;1.40;1.07;;;;;;;;;;4973671;28;20261;-72
2021/12/22 02:04:06;;;;;;;2.10;0.93;;;;;;;;;;4976315;28;20564;-69
2021/12/22 02:06:35;;;;;;;2.73;0.93;;;;;;;;;;4974473;28;20676;-73
2021/12/22 02:09:04;;;;;;;1.60;0.87;;;;;;;;;;4975000;28;20221;-71
2021/12/22 02:11:33;;;;;;;1.83;1.23;;;;;;;;;;4974615;28;20207;-71
2021/12/22 02:14:04;;;;;;;7.43;1.30;;;;;;;;;;4976880;28;20204;-72
2021/12/22 02:16:37;;;;;;;2.37;0.93;;;;;;;;;;4967313;28;20236;-73
2021/12/22 02:19:08;;;;;;;2.53;1.30;;;;;;;;;;4976423;28;20685;-72
2021/12/22 02:21:43;;;;;;;1.30;1.07;;;;;;;;;;4975065;28;20198;-73
2021/12/22 02:24:12;;;;;;;2.03;1.23;;;;;;;;;;4976350;28;20325;-71
2021/12/22 02:26:47;;;;;;;1.40;1.00;;;;;;;;;;4975652;28;20689;-72
2021/12/22 02:29:20;;;;;;;1.37;0.93;;;;;;;;;;4976560;28;20259;-71
2021/12/22 02:32:01;;;;;;;2.13;1.50;;;;;;;;;;4974697;28;20660;-72
2021/12/22 02:34:38;;;;;;;2.90;1.00;;;;;;;;;;4976684;28;20623;-73
2021/12/22 02:37:12;;;;;;;1.03;0.83;;;;;;;;;;4974471;28;20229;-70
2021/12/22 02:39:46;;;;;;;3.40;1.23;;;;;;;;;;4976715;28;20624;-72
2021/12/22 02:42:18;;;;;;;0.83;0.77;;;;;;;;;;4973885;28;20233;-71
2021/12/22 02:44:47;;;;;;;1.60;1.17;;;;;;;;;;4975931;28;20268;-73
2021/12/22 02:47:19;;;;;;;1.60;1.07;;;;;;;;;;4973871;28;20230;-70
2021/12/22 02:49:47;;;;;;;1.17;0.83;;;;;;;;;;4976110;28;20720;-71
2021/12/22 02:52:18;;;;;;;0.67;0.67;;;;;;;;;;4976002;28;20252;-70
2021/12/22 02:54:52;;;;;;;1.10;0.97;;;;;;;;;;4975592;28;20260;-73
2021/12/22 02:57:27;;;;;;;3.13;0.57;;;;;;;;;;4974212;28;20231;-73
2021/12/22 03:00:24;;;;;;;1.10;0.87;;;;;;;;;;4975745;28;20208;-73
2021/12/22 03:03:03;;;;;;;1.60;0.83;;;;;;;;;;4974142;28;20601;-73
2021/12/22 03:05:33;;;;;;;3.20;1.00;;;;;;;;;;4974342;28;20206;-72
2021/12/22 03:08:03;;;;;;;1.40;0.63;;;;;;;;;;4975625;28;20236;-70
2021/12/22 03:10:32;;;;;;;4.33;0.83;;;;;;;;;;4974011;28;20268;-72
2021/12/22 03:13:04;;;;;;;2.03;0.93;;;;;;;;;;4974516;28;20206;-71
2021/12/22 03:15:32;;;;;;;2.43;0.87;;;;;;;;;;4973294;28;20333;-71
2021/12/22 03:18:02;;;;;;;0.97;0.83;;;;;;;;;;4973238;28;20229;-70
2021/12/22 03:20:30;;;;;;;1.90;1.17;;;;;;;;;;4972541;28;20550;-72
2021/12/22 03:22:59;;;;;;;4.50;1.17;;;;;;;;;;4975391;28;20270;-70
2021/12/22 03:25:28;;;;;;;1.37;0.97;;;;;;;;;;4973775;28;20231;-71
2021/12/22 03:28:02;;;;;;;0.87;0.63;;;;;;;;;;4975093;28;20770;-71
2021/12/22 03:30:31;;;;;;;1.10;0.73;;;;;;;;;;4972677;28;20354;-70
2021/12/22 03:32:59;;;;;;;1.80;0.97;;;;;;;;;;4975190;28;20202;-72
2021/12/22 03:35:28;;;;;;;2.37;1.07;;;;;;;;;;4974154;28;20275;-72
2021/12/22 03:37:57;;;;;;;0.77;0.63;;;;;;;;;;4974910;28;20244;-70
2021/12/22 03:40:26;;;;;;;1.47;1.07;;;;;;;;;;4972740;28;20252;-71
2021/12/22 03:42:56;;;;;;;1.50;1.03;;;;;;;;;;4975045;28;20599;-72
2021/12/22 03:45:25;;;;;;;0.83;0.47;;;;;;;;;;4966888;28;20259;-69
2021/12/22 03:48:04;;;;;;;1.70;1.27;;;;;;;;;;4973680;28;20256;-69
2021/12/22 03:50:38;;;;;;;1.07;0.77;;;;;;;;;;4972495;28;20236;-73
2021/12/22 03:53:06;;;;;;;1.47;0.83;;;;;;;;;;4975204;28;20194;-71
2021/12/22 03:55:35;;;;;;;1.10;0.83;;;;;;;;;;4972665;28;20666;-73
2021/12/22 03:58:04;;;;;;;1.33;1.03;;;;;;;;;;4974340;28;20225;-73
2021/12/22 04:00:33;;;;;;;1.13;0.97;;;;;;;;;;4972695;28;20624;-72
2021/12/22 04:03:03;;;;;;;1.90;0.90;;;;;;;;;;4974213;28;20210;-72
2021/12/22 04:05:31;;;;;;;1.70;1.07;;;;;;;;;;4974265;28;20213;-70
2021/12/22 04:08:00;;;;;;;1.07;0.53;;;;;;;;;;4974713;28;20245;-71
2021/12/22 04:10:28;;;;;;;1.07;0.73;;;;;;;;;;4973090;28;20253;-73
2021/12/22 04:12:58;;;;;;;1.50;0.77;;;;;;;;;;4974284;28;20258;-71
2021/12/22 04:15:29;;;;;;;1.13;0.93;;;;;;;;;;4964471;28;20721;-73
2021/12/22 04:17:57;;;;;;;1.13;0.87;;;;;;;;;;4963615;28;20278;-73
2021/12/22 04:20:27;;;;;;;0.67;0.63;;;;;;;;;;4974583;28;20264;-72
2021/12/22 04:22:56;;;;;;;3.20;1.20;;;;;;;;;;4973338;28;20267;-71
2021/12/22 04:25:24;;;;;;;2.37;0.87;;;;;;;;;;4973682;28;20200;-70
2021/12/22 04:27:55;;;;;;;1.03;0.57;;;;;;;;;;4972615;28;20221;-70
2021/12/22 04:30:24;;;;;;;1.60;1.07;;;;;;;;;;4971902;28;20272;-72
2021/12/22 04:32:54;;;;;;;1.10;0.87;;;;;;;;;;4973776;28;20198;-71
2021/12/22 04:35:22;;;;;;;2.70;1.00;;;;;;;;;;4972781;28;20205;-71
2021/12/22 04:37:51;;;;;;;3.60;0.67;;;;;;;;;;4974319;28;20245;-71
2021/12/22 04:40:19;;;;;;;1.30;0.57;;;;;;;;;;4972316;28;20206;-75
2021/12/22 04:42:48;;;;;;;1.07;0.97;;;;;;;;;;4974047;28;20210;-72
2021/12/22 04:45:17;;;;;;;3.03;0.87;;;;;;;;;;4973377;28;20654;-71
2021/12/22 04:47:46;;;;;;;3.30;1.13;;;;;;;;;;4973865;28;20695;-71
2021/12/22 04:50:18;;;;;;;3.50;1.27;;;;;;;;;;4974261;28;20257;-76
2021/12/22 04:52:52;;;;;;;10.60;2.17;;;;;;;;;;4972580;28;20206;-73
2021/12/22 04:55:21;;;;;;;12.00;1.53;;;;;;;;;;4973906;28;20201;-72
2021/12/22 04:57:49;;;;;;;1.90;1.07;;;;;;;;;;4972629;28;20231;-73
2021/12/22 05:00:18;;;;;;;2.03;1.20;;;;;;;;;;4962066;28;20197;-71
2021/12/22 05:02:46;;;;;;;2.80;1.20;;;;;;;;;;4962907;28;20261;-71
2021/12/22 05:05:14;;;;;;;8.63;1.50;;;;;;;;;;4972255;28;20211;-71
2021/12/22 05:07:47;;;;;;;2.20;0.83;;;;;;;;;;4973737;28;20222;-73
2021/12/22 05:10:16;;;;;;;5.33;1.60;;;;;;;;;;4972262;28;20542;-72
2021/12/22 05:12:46;;;;;;;6.23;1.60;;;;;;;;;;4973951;28;20616;-75
2021/12/22 05:15:17;;;;;;;1.13;0.87;;;;;;;;;;4972006;28;20666;-73
2021/12/22 05:18:14;;;;;;;4.03;1.20;;;;;;;;;;4972151;28;20631;-71
2021/12/22 05:20:42;;;;;;;1.90;0.97;;;;;;;;;;4973909;28;20269;-73
2021/12/22 05:23:17;;;;;;;6.90;1.27;;;;;;;;;;4971994;28;20205;-73
2021/12/22 05:25:46;;;;;;;2.63;1.23;;;;;;;;;;4968946;28;20202;-73
2021/12/22 05:28:14;;;;;;;1.70;1.13;;;;;;;;;;4971445;28;20276;-71
2021/12/22 05:30:46;;;;;;;3.10;1.00;;;;;;;;;;4972741;28;20213;-72
2021/12/22 05:33:14;;;;;;;1.90;1.10;;;;;;;;;;4972113;28;20211;-72
2021/12/22 05:35:43;;;;;;;1.50;1.07;;;;;;;;;;4973673;28;20212;-70
2021/12/22 05:38:11;;;;;;;3.13;0.87;;;;;;;;;;4973507;28;20702;-72
2021/12/22 05:40:41;;;;;;;4.90;1.23;;;;;;;;;;4971024;28;20218;-73
2021/12/22 05:43:10;;;;;;;2.83;0.87;;;;;;;;;;4973628;28;20207;-73
2021/12/22 05:45:38;;;;;;;2.63;1.37;;;;;;;;;;4972995;28;20261;-72
2021/12/22 05:48:07;;;;;;;3.50;0.90;;;;;;;;;;4977585;28;20220;-72
2021/12/22 05:50:35;;;;;;;14.33;1.70;;;;;;;;;;4975484;28;20210;-71
2021/12/22 05:53:04;;;;;;;2.67;0.87;;;;;;;;;;4976869;28;20198;-71
2021/12/22 05:55:33;;;;;;;5.30;1.60;;;;;;;;;;4974598;28;20203;-73
2021/12/22 05:58:02;;;;;;;2.17;1.50;;;;;;;;;;4973628;28;20754;-70
2021/12/22 06:00:31;;;;;;;1.20;0.87;;;;;;;;;;4975212;28;20232;-70
2021/12/22 06:02:59;;;;;;;3.63;1.40;;;;;;;;;;4974374;28;20240;-72
2021/12/22 06:05:28;;;;;;;2.10;1.40;;;;;;;;;;4976736;28;20689;-71
2021/12/22 06:07:56;;;;;;;1.60;1.00;;;;;;;;;;4974299;28;20230;-73
2021/12/22 06:10:25;;;;;;;2.60;1.23;;;;;;;;;;4975326;28;20725;-71
2021/12/22 06:12:53;;;;;;;2.03;1.20;;;;;;;;;;4976806;28;20206;-71
2021/12/22 06:15:23;;;;;;;3.23;1.07;;;;;;;;;;4974932;28;20267;-73
2021/12/22 06:17:55;;;;;;;2.87;1.27;;;;;;;;;;4978265;28;20635;-73
2021/12/22 06:20:24;;;;;;;4.37;1.43;;;;;;;;;;4973864;28;20217;-76
2021/12/22 06:22:53;;;;;;;1.73;1.33;;;;;;;;;;4973663;28;20216;-73
2021/12/22 06:25:22;;;;;;;2.90;1.40;;;;;;;;;;4976103;28;20268;-71
2021/12/22 06:27:51;;;;;;;1.37;1.03;;;;;;;;;;4975891;28;20218;-73
2021/12/22 06:30:20;;;;;;;7.43;1.50;;;;;;;;;;4976316;28;20613;-70
2021/12/22 06:32:50;;;;;;;2.10;1.17;;;;;;;;;;4975880;28;20204;-73
2021/12/22 06:35:18;;;;;;;4.87;1.80;;;;;;;;;;4976473;28;20204;-71
2021/12/22 06:37:47;;;;;;;1.50;0.93;;;;;;;;;;4974746;28;20257;-71
2021/12/22 06:40:16;;;;;;;6.50;1.40;;;;;;;;;;4975729;28;20202;-73
2021/12/22 06:42:45;;;;;;;2.33;1.13;;;;;;;;;;4975700;28;20537;-76
2021/12/22 06:45:14;;;;;;;2.37;1.00;;;;;;;;;;4976083;28;20206;-72
2021/12/22 06:47:43;;;;;;;7.43;1.33;;;;;;;;;;4976879;28;20233;-72
2021/12/22 06:50:13;;;;;;;2.13;1.37;;;;;;;;;;4976357;28;20214;-70
2021/12/22 06:52:41;;;;;;;3.93;1.80;;;;;;;;;;4975985;28;20268;-72
2021/12/22 06:55:09;;;;;;;4.40;1.80;;;;;;;;;;4975864;28;20276;-72
2021/12/22 06:57:38;;;;;;;8.60;1.70;;;;;;;;;;4975564;28;20285;-72
2021/12/22 07:00:08;;;;;;;2.63;1.30;;;;;;;;;;4975656;28;20564;-73
2021/12/22 07:02:38;;;;;;;8.27;1.73;;;;;;;;;;4975578;28;20199;-72
2021/12/22 07:05:08;;;;;;;3.63;1.20;;;;;;;;;;4975960;28;20238;-74
2021/12/22 07:07:38;;;;;;;2.73;1.20;;;;;;;;;;4974765;28;20362;-73
2021/12/22 07:10:07;;;;;;;3.83;1.60;;;;;;;;;;4973785;28;20199;-73
2021/12/22 07:12:36;;;;;;;4.03;1.10;;;;;;;;;;4975820;28;20265;-72
2021/12/22 07:15:04;;;;;;;2.03;1.20;;;;;;;;;;4975684;28;20206;-72
2021/12/22 07:17:33;;;;;;;2.20;1.27;;;;;;;;;;4975645;28;20280;-71
2021/12/22 07:20:01;;;;;;;3.73;1.50;;;;;;;;;;4975348;28;20268;-73
2021/12/22 07:22:30;;;;;;;4.80;1.70;;;;;;;;;;4975474;28;20205;-72
2021/12/22 07:24:59;;;;;;;1.33;0.97;;;;;;;;;;4973100;28;20203;-73
2021/12/22 07:27:28;;;;;;;2.40;1.40;;;;;;;;;;4975685;28;20304;-72
2021/12/22 07:29:56;;;;;;;4.13;1.30;;;;;;;;;;4975361;28;20609;-72
2021/12/22 07:32:24;;;;;;;2.27;1.50;;;;;;;;;;4974756;28;20729;-72
2021/12/22 07:34:58;;;;;;;2.07;1.10;;;;;;;;;;4975518;28;20662;-73
2021/12/22 07:37:29;;;;;;;2.90;1.53;;;;;;;;;;4974571;28;20231;-71
2021/12/22 07:39:57;;;;;;;2.13;1.27;;;;;;;;;;4974938;28;20253;-73
2021/12/22 07:42:27;;;;;;;2.70;1.27;;;;;;;;;;4975274;28;20261;-76
2021/12/22 07:44:55;;;;;;;1.60;0.97;;;;;;;;;;4975215;28;20555;-70
2021/12/22 07:47:24;;;;;;;1.27;0.73;;;;;;;;;;4975097;28;20291;-73
2021/12/22 07:49:52;;;;;;;2.03;1.23;;;;;;;;;;4975153;28;20207;-72
2021/12/22 07:52:20;;;;;;;2.33;1.70;;;;;;;;;;4974934;28;20260;-73
2021/12/22 07:54:49;;;;;;;2.17;1.40;;;;;;;;;;4975213;28;20212;-73
2021/12/22 07:57:17;;;;;;;2.67;1.80;;;;;;;;;;4975056;28;20633;-72
2021/12/22 07:59:47;;;;;;;1.40;0.93;;;;;;;;;;4974746;28;20222;-74
2021/12/22 08:02:16;;;;;;;1.60;1.13;;;;;;;;;;4974811;28;20274;-72
2021/12/22 08:04:45;;;;;;;1.30;0.87;;;;;;;;;;4973281;28;20663;-71
2021/12/22 08:07:13;;;;;;;2.73;1.50;;;;;;;;;;4972281;28;20726;-74
2021/12/22 08:09:42;;;;;;;2.10;0.73;;;;;;;;;;4976172;28;20203;-70
2021/12/22 08:12:11;;;;;;;2.10;1.03;;;;;;;;;;4992691;28;20217;-72
2021/12/22 08:14:40;;;;;;;2.27;1.30;;;;;;;;;;4994235;28;20628;-72
2021/12/22 08:17:10;;;;;;;2.13;1.03;;;;;;;;;;4993545;28;20321;-71
2021/12/22 08:19:40;;;;;;;2.93;1.50;;;;;;;;;;4991109;28;20660;-72
2021/12/22 08:22:08;;;;;;;2.83;1.20;;;;;;;;;;4974445;28;20206;-74
2021/12/22 08:24:37;;;;;;;1.43;1.03;;;;;;;;;;4974673;28;20210;-70
2021/12/22 08:27:06;;;;;;;1.50;1.03;;;;;;;;;;4973410;28;20232;-71
2021/12/22 08:29:36;;;;;;;1.13;0.83;;;;;;;;;;4974002;28;20198;-73
2021/12/22 08:32:04;;;;;;;0.73;0.57;;;;;;;;;;4973948;28;20340;-71
2021/12/22 08:34:37;;;;;;;0.93;0.57;;;;;;;;;;4973532;28;20210;-70
2021/12/22 08:39:52;;;;;;;0.77;0.57;;;;;;;;;;4974584;28;20224;-73
2021/12/22 08:42:21;;;;;;;1.10;0.87;;;;;;;;;;4974353;28;20201;-74
2021/12/22 08:44:50;;;;;;;0.60;0.60;;;;;;;;;;4974262;28;20264;-73
2021/12/22 08:47:19;;;;;;;0.83;0.67;;;;;;;;;;4973927;28;20272;-71
2021/12/22 08:49:49;;;;;;;1.27;0.77;;;;;;;;;;4973952;28;20666;-71
2021/12/22 08:52:17;;;;;;;0.50;0.43;;;;;;;;;;4974152;28;20673;-73
2021/12/22 08:54:46;;;;;;;0.40;0.30;;;;;;;;;;4974095;28;20205;-74
2021/12/22 08:57:14;;;;;;;0.50;0.40;;;;;;;;;;4973898;28;20224;-72
2021/12/22 08:59:42;;;;;;;0.63;0.37;;;;;;;;;;4974007;28;20225;-74
2021/12/22 09:02:12;;;;;;;1.13;0.73;;;;;;;;;;4974176;28;20216;-73
2021/12/22 09:04:40;;;;;;;0.50;0.40;;;;;;;;;;4973885;28;20226;-73
2021/12/22 09:07:10;;;;;;;0.33;0.20;;;;;;;;;;4968504;28;20245;-74
2021/12/22 09:09:39;;;;;;;0.70;0.37;;;;;;;;;;4954984;28;20215;-74
2021/12/22 09:12:08;;;;;;;0.57;0.27;;;;;;;;;;4955003;28;20625;-73
2021/12/22 09:14:36;;;;;;;0.20;0.20;;;;;;;;;;4964339;28;20208;-71
2021/12/22 09:17:05;;;;;;;0.10;0.10;;;;;;;;;;4973904;28;20277;-73
2021/12/22 09:19:33;;;;;;;0.00;0.00;;;;;;;;;;4975075;28;20225;-74
2021/12/22 09:22:02;;;;;;;0.00;0.00;;;;;;;;;;4978117;28;20216;-74
2021/12/22 09:24:31;;;;;;;0.00;0.00;;;;;;;;;;4977919;28;20287;-72
2021/12/22 09:27:00;;;;;;;0.00;0.00;;;;;;;;;;4977825;28;20228;-72
2021/12/22 09:29:29;;;;;;;0.00;0.00;;;;;;;;;;4977342;28;20199;-74
2021/12/22 09:31:58;;;;;;;0.00;0.00;;;;;;;;;;4977846;28;20205;-74
2021/12/22 09:34:26;;;;;;;0.00;0.00;;;;;;;;;;4977668;28;20608;-74
2021/12/22 09:36:55;;;;;;;0.00;0.00;;;;;;;;;;4977459;28;20759;-74
2021/12/22 09:39:24;;;;;;;0.00;0.00;;;;;;;;;;4977366;28;20209;-70
2021/12/22 09:41:54;;;;;;;0.00;0.00;;;;;;;;;;4977585;28;20212;-74
2021/12/22 09:44:30;;;;;;;0.00;0.00;;;;;;;;;;4977179;28;20256;-74
2021/12/22 09:46:59;;;;;;;0.00;0.00;;;;;;;;;;4958204;29;20238;-73
2021/12/22 09:49:46;;;;;;;0.00;0.00;;;;;;;;;;4959757;28;20690;-71
2021/12/22 09:52:21;;;;;;;0.00;0.00;;;;;;;;;;4976912;28;20209;-71
2021/12/22 09:54:56;;;;;;;0.00;0.00;;;;;;;;;;4977301;28;20206;-72
2021/12/22 09:57:25;;;;;;;0.00;0.00;;;;;;;;;;4976708;28;20252;-75
2021/12/22 09:59:55;;;;;;;0.00;0.00;;;;;;;;;;4977220;28;20226;-71
2021/12/22 10:02:28;;;;;;;0.00;0.00;;;;;;;;;;4976586;28;20609;-74
2021/12/22 10:04:57;;;;;;;0.00;0.00;;;;;;;;;;4977220;28;20237;-72
2021/12/22 10:07:29;;;;;;;0.00;0.00;;;;;;;;;;4976562;28;20237;-73
2021/12/22 10:10:07;;;;;;;0.00;0.00;;;;;;;;;;4976921;28;20665;-73
2021/12/22 10:12:38;;;;;;;0.00;0.00;;;;;;;;;;4976906;28;20201;-73
2021/12/22 10:15:08;;;;;;;0.00;0.00;;;;;;;;;;4976952;28;20213;-73
2021/12/22 10:17:37;;;;;;;0.00;0.00;;;;;;;;;;4976202;28;20325;-72
2021/12/22 10:20:10;;;;;;;0.00;0.00;;;;;;;;;;4976622;28;20228;-74
2021/12/22 10:22:39;;;;;;;0.00;0.00;;;;;;;;;;4976532;28;20206;-72
2021/12/22 10:25:10;;;;;;;0.00;0.00;;;;;;;;;;4976944;28;20260;-74
2021/12/22 10:27:45;;;;;;;0.00;0.00;;;;;;;;;;4976771;28;20289;-73
2021/12/22 10:30:32;;;;;;;0.00;0.00;;;;;;;;;;4975495;28;20205;-71
2021/12/22 10:33:08;;;;;;;0.00;0.00;;;;;;;;;;4976303;28;20205;-72
2021/12/22 10:35:38;;;;;;;0.00;0.00;;;;;;;;;;4976680;28;20668;-72
2021/12/22 10:38:07;;;;;;;0.00;0.00;;;;;;;;;;4976518;28;20233;-71
2021/12/22 10:40:36;;;;;;;0.00;0.00;;;;;;;;;;4976249;28;20691;-70
2021/12/22 10:43:06;;;;;;;0.00;0.00;;;;;;;;;;4976436;28;20215;-74
2021/12/22 10:45:36;;;;;;;0.00;0.00;;;;;;;;;;4976377;28;20202;-71
2021/12/22 10:50:56;;;;;;;0.00;0.00;;;;;;;;;;4976081;28;20210;-72
2021/12/22 10:53:25;;;;;;;0.00;0.00;;;;;;;;;;4976231;28;20209;-73
2021/12/22 10:55:55;;;;;;;0.00;0.00;;;;;;;;;;4976430;28;20261;-71
2021/12/22 10:58:26;;;;;;;0.00;0.00;;;;;;;;;;4976160;28;20227;-72
2021/12/22 11:01:07;;;;;;;0.00;0.00;;;;;;;;;;4976181;28;20221;-71
2021/12/22 11:03:39;;;;;;;0.00;0.00;;;;;;;;;;4975627;28;20825;-72
2021/12/22 11:06:12;;;;;;;0.00;0.00;;;;;;;;;;4976234;28;20240;-72
2021/12/22 11:08:41;;;;;;;0.00;0.00;;;;;;;;;;4975664;28;20702;-72
2021/12/22 11:11:13;;;;;;;0.00;0.00;;;;;;;;;;4976019;28;20565;-71
2021/12/22 11:13:43;;;;;;;0.00;0.00;;;;;;;;;;4975990;28;20211;-73
2021/12/22 11:16:15;;;;;;;0.00;0.00;;;;;;;;;;4975954;28;20260;-73
2021/12/22 11:18:46;;;;;;;0.00;0.00;;;;;;;;;;4975737;28;20204;-74
2021/12/22 11:21:17;;;;;;;0.00;0.00;;;;;;;;;;4975427;28;20218;-71
2021/12/22 11:23:46;;;;;;;0.00;0.00;;;;;;;;;;4975812;28;20211;-73
2021/12/22 11:26:14;;;;;;;0.00;0.00;;;;;;;;;;4975531;28;20213;-73
2021/12/22 11:28:44;;;;;;;0.00;0.00;;;;;;;;;;4976064;28;20258;-73
2021/12/22 11:31:13;;;;;;;0.00;0.00;;;;;;;;;;4975671;28;20271;-73
2021/12/22 11:33:45;;;;;;;0.00;0.00;;;;;;;;;;4975492;28;20556;-71
2021/12/22 11:36:14;;;;;;;0.00;0.00;;;;;;;;;;4975153;28;20601;-72
2021/12/22 11:38:42;;;;;;;0.00;0.00;;;;;;;;;;4975421;28;20626;-74
2021/12/22 11:41:14;;;;;;;0.00;0.00;;;;;;;;;;4974651;28;20633;-74
2021/12/22 11:43:45;;;;;;;0.00;0.00;;;;;;;;;;4975412;28;20267;-72
2021/12/22 11:46:13;;;;;;;0.00;0.00;;;;;;;;;;4975239;28;20632;-72
2021/12/22 11:48:42;;;;;;;0.00;0.00;;;;;;;;;;4975092;28;20216;-72
2021/12/22 11:51:24;;;;;;;0.00;0.00;;;;;;;;;;4975167;28;20606;-73
2021/12/22 11:53:53;;;;;;;0.00;0.00;;;;;;;;;;4975345;28;20217;-74
2021/12/22 11:56:35;;;;;;;0.00;0.00;;;;;;;;;;4975484;28;20212;-72
2021/12/22 11:59:05;;;;;;;0.00;0.00;;;;;;;;;;4974945;28;20212;-73
2021/12/22 12:01:34;;;;;;;0.00;0.00;;;;;;;;;;4974656;28;20212;-72
2021/12/22 12:04:13;;;;;;;0.00;0.00;;;;;;;;;;4974710;28;20215;-74
2021/12/22 12:06:48;;;;;;;0.00;0.00;;;;;;;;;;4957474;28;20286;-72
2021/12/22 12:09:16;;;;;;;0.00;0.00;;;;;;;;;;4974769;28;20218;-74
2021/12/22 12:11:50;;;;;;;0.00;0.00;;;;;;;;;;4974787;28;20220;-71
2021/12/22 12:14:58;;;;;;;0.00;0.00;;;;;;;;;;4975187;28;20200;-72
2021/12/22 12:23:26;;;;;;;0.00;0.00;;;;;;;;;;4957507;28;20208;-71
2021/12/22 12:25:55;;;;;;;0.00;0.00;;;;;;;;;;4973620;28;20200;-71
2021/12/22 12:28:28;;;;;;;0.00;0.00;;;;;;;;;;4974101;28;20226;-73
2021/12/22 12:30:59;;;;;;;0.00;0.00;;;;;;;;;;4974565;28;20259;-72
2021/12/22 12:33:28;;;;;;;0.00;0.00;;;;;;;;;;4973588;28;20213;-72
2021/12/22 12:36:01;;;;;;;0.00;0.00;;;;;;;;;;4974381;28;20205;-72
2021/12/22 12:38:31;;;;;;;0.00;0.00;;;;;;;;;;4974027;28;20226;-72
2021/12/22 12:41:18;;;;;;;0.00;0.00;;;;;;;;;;4974355;28;20739;-72
2021/12/22 12:43:57;;;;;;;0.00;0.00;;;;;;;;;;4955071;28;20292;-73
2021/12/22 12:46:46;;;;;;;0.00;0.00;;;;;;;;;;4965898;28;20201;-73
2021/12/22 12:49:30;;;;;;;0.00;0.00;;;;;;;;;;4974024;28;20219;-73
2021/12/22 12:51:59;;;;;;;0.00;0.00;;;;;;;;;;4973725;28;20228;-71
2021/12/22 12:54:29;;;;;;;0.00;0.00;;;;;;;;;;4976190;28;20196;-75
2021/12/22 12:56:59;;;;;;;0.00;0.00;;;;;;;;;;4978494;28;20233;-75
2021/12/22 12:59:42;;;;;;;0.00;0.00;;;;;;;;;;4978413;28;20212;-74
2021/12/22 13:02:12;;;;;;;0.00;0.00;;;;;;;;;;4977962;28;20224;-74
2021/12/22 13:04:43;;;;;;;0.00;0.00;;;;;;;;;;4978171;28;20209;-73
2021/12/22 13:10:44;;;;;;;0.00;0.00;;;;;;;;;;4977648;28;20206;-75
2021/12/22 13:13:18;;;;;;;0.00;0.00;;;;;;;;;;4976907;28;20226;-75
2021/12/22 13:15:46;;;;;;;0.00;0.00;;;;;;;;;;4975960;28;20851;-76
2021/12/22 13:18:30;;;;;;;0.00;0.00;;;;;;;;;;4976722;28;20220;-76
2021/12/22 13:21:03;;;;;;;0.00;0.00;;;;;;;;;;4978002;28;20209;-76
2021/12/22 13:23:31;;;;;;;0.00;0.00;;;;;;;;;;4960411;28;20240;-75
2021/12/22 13:26:01;;;;;;;0.00;0.00;;;;;;;;;;4977777;28;20667;-72
2021/12/22 13:28:30;;;;;;;0.00;0.00;;;;;;;;;;4970440;28;20234;-75
2021/12/22 13:31:00;;;;;;;0.00;0.00;;;;;;;;;;4976894;28;20222;-75
2021/12/22 13:33:34;;;;;;;0.00;0.00;;;;;;;;;;4977766;28;20293;-73
2021/12/22 13:36:03;;;;;;;0.00;0.00;;;;;;;;;;4974618;28;20616;-76
2021/12/22 13:38:33;;;;;;;0.00;0.00;;;;;;;;;;4976973;28;20227;-72
2021/12/22 13:41:02;;;;;;;0.00;0.00;;;;;;;;;;4975831;28;20260;-75
2021/12/22 13:43:34;;;;;;;0.00;0.00;;;;;;;;;;4977286;28;20620;-74
2021/12/22 13:46:13;;;;;;;0.00;0.00;;;;;;;;;;4975907;28;20211;-76
2021/12/22 13:48:48;;;;;;;0.00;0.00;;;;;;;;;;4977240;28;20206;-74
2021/12/22 13:51:18;;;;;;;0.00;0.00;;;;;;;;;;4977283;28;20205;-75
2021/12/22 13:53:47;;;;;;;0.00;0.00;;;;;;;;;;4977290;28;20199;-72
2021/12/22 13:56:17;;;;;;;0.00;0.00;;;;;;;;;;4977003;28;20206;-76
2021/12/22 13:58:46;;;;;;;0.00;0.00;;;;;;;;;;4976833;28;20206;-75
2021/12/22 14:01:16;;;;;;;0.00;0.00;;;;;;;;;;4977282;28;20209;-72
2021/12/22 14:03:47;;;;;;;0.00;0.00;;;;;;;;;;4977162;28;20316;-75
2021/12/22 14:06:27;;;;;;;0.00;0.00;;;;;;;;;;4802991;28;10000456;-75
2021/12/22 14:09:05;;;;;;;0.00;0.00;;;;;;;;;;4965551;28;20833;-75
2021/12/22 14:11:58;;;;;;;0.00;0.00;;;;;;;;;;4974045;28;20253;-73
2021/12/22 14:14:36;;;;;;;0.00;0.00;;;;;;;;;;4973479;28;20734;-73
2021/12/22 14:17:13;;;;;;;0.00;0.00;;;;;;;;;;4974037;28;20226;-74
2021/12/22 14:19:44;;;;;;;0.00;0.00;;;;;;;;;;4973907;28;20287;-75
2021/12/22 14:22:14;;;;;;;0.00;0.00;;;;;;;;;;4973849;28;20226;-73
2021/12/22 14:24:45;;;;;;;0.00;0.00;;;;;;;;;;4973551;28;20265;-76
2021/12/22 14:27:15;;;;;;;0.00;0.00;;;;;;;;;;4973331;28;20218;-74
2021/12/22 14:29:50;;;;;;;0.00;0.00;;;;;;;;;;4973556;28;20206;-76
2021/12/22 14:32:28;;;;;;;0.00;0.00;;;;;;;;;;4974059;28;20546;-74
2021/12/22 14:35:02;;;;;;;0.00;0.00;;;;;;;;;;4963363;28;20214;-75
2021/12/22 14:37:31;;;;;;;0.00;0.00;;;;;;;;;;4972536;28;20238;-73
2021/12/22 14:39:59;;;;;;;0.00;0.00;;;;;;;;;;4971558;28;20741;-76
2021/12/22 14:42:28;;;;;;;0.00;0.00;;;;;;;;;;4972017;28;20720;-75
2021/12/22 14:45:15;;;;;;;0.00;0.00;;;;;;;;;;4971287;28;20213;-76
2021/12/22 14:47:44;;;;;;;0.00;0.00;;;;;;;;;;4973083;28;20240;-72
2021/12/22 14:50:15;;;;;;;0.00;0.00;;;;;;;;;;4972371;28;20676;-75
2021/12/22 14:52:56;;;;;;;0.00;0.00;;;;;;;;;;4972654;28;20662;-76
2021/12/22 14:55:38;;;;;;;0.00;0.00;;;;;;;;;;4972282;28;20210;-74
2021/12/22 14:58:06;;;;;;;0.00;0.00;;;;;;;;;;4972678;28;20295;-75
2021/12/22 15:00:35;;;;;;;0.00;0.00;;;;;;;;;;4970369;28;20206;-73
2021/12/22 15:03:04;;;;;;;0.00;0.00;;;;;;;;;;4968324;28;20632;-75
2021/12/22 15:05:34;;;;;;;0.00;0.00;;;;;;;;;;4972236;28;20224;-75
2021/12/22 15:08:02;;;;;;;0.00;0.00;;;;;;;;;;4971381;28;20228;-71
2021/12/22 15:10:31;;;;;;;0.00;0.00;;;;;;;;;;4971384;28;20225;-72
2021/12/22 15:13:00;;;;;;;0.00;0.00;;;;;;;;;;4971328;28;20252;-72
2021/12/22 15:15:28;;;;;;;0.00;0.00;;;;;;;;;;4972482;28;20204;-71
2021/12/22 15:17:57;;;;;;;0.00;0.00;;;;;;;;;;4974678;28;20229;-71
2021/12/22 15:20:26;;;;;;;0.07;0.07;;;;;;;;;;4975439;28;20267;-71
2021/12/22 15:22:56;;;;;;;0.00;0.00;;;;;;;;;;4974595;28;20310;-74